Flight Track Log - Related Links

Times and Time Zones

All times are in EDT time to prevent confusion due to time zone crossing. See the SWA179 flight status page for this flight to view local times or setup timezone preferences in your user account.

Time Position Orientation Groundspeed Altitude Reporting Facility
EDT Latitude Longitude Course Direction KTS MPH feet Rate Location/Type
Mon 09:04:11 AM 35.0431 -106.5767 75° East 175 201 6,300  Level Albuquerque Center
Mon 09:05:06 AM 35.0561 -106.5164 75° East 220 253 8,300 1,899 Climbing Albuquerque Center
Mon 09:05:30 AM 35.0725 -106.5094 19° North 222 255 8,800 2,471 Climbing Albuquerque Center
Mon 09:06:31 AM 35.1050 -106.5636 306° West 225 259 11,800 2,262 Climbing Albuquerque Center
Mon 09:07:32 AM 35.1053 -106.6558 270° West 278 320 13,400 2,132 Climbing Albuquerque Center
Mon 09:08:32 AM 35.1069 -106.7658 271° West 324 373 16,100 3,074 Climbing Albuquerque Center
Mon 09:09:33 AM 35.1072 -106.8972 270° West 329 379 19,600 2,803 Climbing Albuquerque Center
Mon 09:10:34 AM 35.1081 -107.0114 271° West 334 384 21,800 2,066 Climbing Albuquerque Center
Mon 09:11:35 AM 35.1089 -107.1322 271° West 353 406 23,800 2,033 Climbing Albuquerque Center
Mon 09:12:35 AM 35.1089 -107.2647 270° West 361 415 25,900 1,983 Climbing Albuquerque Center
Mon 09:13:36 AM 35.1008 -107.3886 265° West 365 420 27,800 2,115 Climbing Albuquerque Center
Mon 09:14:37 AM 35.0931 -107.5050 265° West 363 418 30,200 2,361 Climbing Albuquerque Center
Mon 09:15:38 AM 35.0864 -107.6097 266° West 351 404 32,600 1,884 Climbing Albuquerque Center
Mon 09:16:38 AM 35.0794 -107.7167 265° West 325 374 34,000 694 Climbing Albuquerque Center
Mon 09:17:39 AM 35.0708 -107.8236 264° West 319 367 34,000  Level Albuquerque Center
Mon 09:18:40 AM 35.0628 -107.9325 265° West 320 368 34,000  Level Albuquerque Center
Mon 09:19:41 AM 35.0528 -108.0622 265° West 320 368 34,000  Level Albuquerque Center
Mon 09:20:42 AM 35.0458 -108.1592 265° West 320 368 34,000  Level Albuquerque Center
Mon 09:21:43 AM 35.0236 -108.2783 257° West 321 369 34,000  Level Albuquerque Center
Mon 09:22:44 AM 35.0036 -108.3833 257° West 326 375 34,000  Level Albuquerque Center
Mon 09:23:44 AM 34.9842 -108.4861 257° West 326 375 34,000  Level Albuquerque Center
Mon 09:24:45 AM 34.9608 -108.6069 257° West 326 375 34,000  Level Albuquerque Center
Mon 09:25:46 AM 34.9403 -108.7092 256° West 326 375 34,000  Level Albuquerque Center
Mon 09:26:47 AM 34.9208 -108.8103 257° West 325 374 34,000  Level Albuquerque Center
Mon 09:27:48 AM 34.8972 -108.9258 256° West 319 367 34,000  Level Albuquerque Center
Mon 09:28:49 AM 34.8775 -109.0244 256° West 316 364 34,000  Level Albuquerque Center
Mon 09:29:50 AM 34.8581 -109.1236 257° West 316 364 34,000  Level Albuquerque Center
Mon 09:30:51 AM 34.8344 -109.2394 256° West 316 364 34,000  Level Albuquerque Center
Mon 09:31:52 AM 34.8139 -109.3408 256° West 316 364 34,000  Level Albuquerque Center
Mon 09:32:53 AM 34.7931 -109.4419 256° West 318 366 34,000  Level Albuquerque Center
Mon 09:33:54 AM 34.7694 -109.5619 257° West 321 369 34,000  Level Albuquerque Center
Mon 09:34:55 AM 34.7478 -109.6617 255° West 321 369 34,000  Level Albuquerque Center
Mon 09:35:57 AM 34.7242 -109.7825 257° West 323 372 34,000  Level Albuquerque Center
Mon 09:36:58 AM 34.7008 -109.8861 255° West 325 374 34,000  Level Albuquerque Center
Mon 09:37:59 AM 34.6611 -109.9786 242° Southwest 324 373 34,000  Level Albuquerque Center
Mon 09:39:00 AM 34.6192 -110.0944 246° West 329 379 34,000  Level Albuquerque Center
Mon 09:40:01 AM 34.5867 -110.1967 249° West 337 388 34,000  Level Albuquerque Center
Mon 09:41:02 AM 34.5511 -110.2914 246° West 328 377 34,000 -443 Level Albuquerque Center
Mon 09:42:03 AM 34.5061 -110.3967 243° Southwest 316 364 33,100 -492 Descending Albuquerque Center
Mon 09:43:04 AM 34.4714 -110.5008 248° West 333 383 33,000 -246 Descending Albuquerque Center
Mon 09:44:05 AM 34.4328 -110.6003 245° Southwest 330 380 32,600 -1,377 Descending Albuquerque Center
Mon 09:45:06 AM 34.3942 -110.7014 245° Southwest 329 379 30,200 -2,262 Descending Albuquerque Center
Mon 09:46:07 AM 34.3508 -110.7958 241° Southwest 327 376 28,000 -1,082 Descending Albuquerque Center
Mon 09:47:08 AM 34.2936 -110.8761 229° Southwest 318 366 28,000 -738 Level Albuquerque Center
Mon 09:48:09 AM 34.2292 -110.9583 227° Southwest 331 381 26,500 -1,918 Descending Albuquerque Center
Mon 09:49:10 AM 34.1667 -111.0389 227° Southwest 333 383 24,100 -1,721 Descending Albuquerque Center
Mon 09:50:11 AM 34.1078 -111.1150 227° Southwest 317 365 23,000 -1,279 Descending Albuquerque Center
Mon 09:51:12 AM 34.0481 -111.1917 227° Southwest 316 364 21,500 -1,756 Descending Albuquerque Center
Mon 09:52:14 AM 33.9892 -111.2669 227° Southwest 313 360 19,400 -1,951 Descending Albuquerque Center
Mon 09:53:15 AM 33.9350 -111.3369 227° Southwest 292 336 17,500 -1,672 Descending Albuquerque Center
Mon 09:54:16 AM 33.8725 -111.4194 228° Southwest 281 323 16,000 -1,475 Descending Albuquerque Center
Mon 09:55:17 AM 33.8322 -111.4986 239° Southwest 278 320 14,500 -1,475 Descending Albuquerque Center
Mon 09:56:18 AM 33.7922 -111.5753 238° Southwest 273 314 13,000 -1,574 Descending Albuquerque Center
Mon 09:57:19 AM 33.7514 -111.6506 237° Southwest 270 311 11,300 -1,463 Descending Albuquerque Center
Mon 09:58:21 AM 33.7117 -111.7250 237° Southwest 267 307 10,000 -634 Descending Albuquerque Center
Mon 09:59:22 AM 33.6719 -111.7981 237° Southwest 263 303 10,000 -148 Level Albuquerque Center
Mon 10:00:23 AM 33.6317 -111.8719 237° Southwest 263 303 9,700 -541 Descending Albuquerque Center
Mon 10:01:24 AM 33.5919 -111.9444 237° Southwest 259 298 8,900 -1,082 Descending Albuquerque Center
Mon 10:02:25 AM 33.5556 -112.0144 238° Southwest 253 291 7,500 -1,024 Descending Albuquerque Center
Mon 10:03:27 AM 33.5236 -112.0814 240° Southwest 232 267 6,800 -976 Descending Albuquerque Center
Mon 10:04:28 AM 33.5253 -112.1558 272° West 224 258 5,500 -1,377 Descending Albuquerque Center
Mon 10:05:29 AM 33.4728 -112.1778 199° South 220 253 4,000 -934 Descending Albuquerque Center
Mon 10:06:30 AM 33.4325 -112.1447 146° Southeast 193 222 3,600 -903 Descending Albuquerque Center
Mon 10:07:02 AM 33.4333 -112.1167 88° East 155 178 2,600 -1,239 Descending Phoenix TRACON
Mon 10:08:02 AM 33.4333 -112.0667 90° East 134 154 1,700 -592 Descending Phoenix TRACON
Mon 10:09:34 AM 33.4411 -112.0053 81° East 132 152 1,100 -391 Descending Albuquerque Center

Login

Don't have an account? Register now (free) for customized features, flight alerts, and more!